Time;durP1;ratioP1;P1;durP2;ratioP2;P2;SDS_P1;SDS_P2;PMS_P1;PMS_P2;Temp;Humidity;BMP_temperature;BMP_pressure;BME280_temperature;BME280_humidity;BME280_pressure;Samples;Min_cycle;Max_cycle;Signal;HPM_P1;HPM_P2
2023/01/04 00:00:08;;;;;;;15.65;9.45;;;;;;;3.39;84.67;100765.00;342973;28;2214;-73
2023/01/04 00:00:20;;;;;;;14.27;9.43;;;;;;;3.42;84.68;100765.06;344299;28;1446;-72
2023/01/04 00:00:33;;;;;;;13.82;9.38;;;;;;;3.44;84.64;100758.22;343483;28;1855;-71
2023/01/04 00:00:45;;;;;;;13.68;9.38;;;;;;;3.47;84.83;100763.41;342073;28;1689;-70
2023/01/04 00:01:00;;;;;;;13.20;8.77;;;;;;;3.48;84.50;100752.28;341926;28;1654;-71
2023/01/04 00:02:44;;;;;;;16.48;9.70;;;;;;;3.55;84.24;100766.94;344724;28;1310;-70
2023/01/04 00:02:56;;;;;;;15.05;9.30;;;;;;;3.57;83.98;100764.41;343255;28;1783;-70
2023/01/04 00:03:08;;;;;;;13.90;8.48;;;;;;;3.57;83.92;100760.13;343688;28;1695;-71
2023/01/04 00:03:20;;;;;;;14.43;8.52;;;;;;;3.58;83.82;100758.41;343410;28;1950;-70
2023/01/04 00:03:33;;;;;;;13.77;8.50;;;;;;;3.58;83.73;100761.84;343934;28;1679;-71
2023/01/04 00:03:45;;;;;;;12.15;8.13;;;;;;;3.53;83.90;100758.34;343496;28;1891;-69
2023/01/04 00:03:57;;;;;;;12.48;8.13;;;;;;;3.54;84.00;100754.06;343263;28;1856;-70
2023/01/04 00:04:09;;;;;;;13.05;8.70;;;;;;;3.51;83.58;100765.19;342952;28;1752;-70
2023/01/04 00:04:21;;;;;;;15.20;8.70;;;;;;;3.48;83.86;100754.88;341155;28;1968;-70
2023/01/04 00:04:33;;;;;;;15.98;8.85;;;;;;;3.46;83.64;100761.69;343660;28;1471;-68
2023/01/04 00:04:45;;;;;;;15.27;8.70;;;;;;;3.46;83.88;100761.69;341527;28;2177;-69
2023/01/04 00:04:57;;;;;;;13.75;8.73;;;;;;;3.43;84.23;100759.06;342062;28;1852;-68
2023/01/04 00:05:12;;;;;;;13.82;8.80;;;;;;;3.42;84.00;100762.50;341941;28;1868;-71
2023/01/04 00:05:24;;;;;;;12.90;8.60;;;;;;;3.38;84.38;100764.16;340823;28;1958;-71
2023/01/04 00:05:36;;;;;;;13.82;8.55;;;;;;;3.37;84.19;100767.53;342438;28;1944;-70
2023/01/04 00:05:48;;;;;;;13.57;8.47;;;;;;;3.39;84.52;100763.28;342587;28;1988;-70
2023/01/04 00:06:04;;;;;;;14.80;8.90;;;;;;;3.40;84.52;100766.72;342614;28;1980;-71
2023/01/04 00:06:17;;;;;;;12.15;8.20;;;;;;;3.42;84.58;100767.63;340987;28;1664;-70
2023/01/04 00:06:29;;;;;;;10.35;7.55;;;;;;;3.42;84.66;100759.91;340858;28;1789;-70
2023/01/04 00:06:41;;;;;;;10.68;7.95;;;;;;;3.44;84.26;100759.91;341471;28;1862;-70
2023/01/04 00:06:53;;;;;;;11.40;8.35;;;;;;;3.43;84.54;100759.06;341498;28;2217;-72
2023/01/04 00:07:05;;;;;;;12.27;8.60;;;;;;;3.42;85.01;100759.91;341705;28;1915;-70
2023/01/04 00:07:17;;;;;;;13.15;8.80;;;;;;;3.31;84.92;100761.47;341419;28;2131;-70
2023/01/04 00:07:29;;;;;;;12.68;8.63;;;;;;;3.27;84.74;100757.97;341305;28;1859;-70
2023/01/04 00:07:42;;;;;;;13.25;8.68;;;;;;;3.28;85.26;100758.81;342352;28;1983;-70
2023/01/04 00:07:54;;;;;;;14.00;8.73;;;;;;;3.30;85.64;100767.41;342627;28;1875;-70
2023/01/04 00:08:06;;;;;;;13.48;8.60;;;;;;;3.30;85.16;100759.72;342462;28;1972;-70
2023/01/04 00:08:18;;;;;;;12.80;8.48;;;;;;;3.31;85.55;100753.75;343308;28;1641;-70
2023/01/04 00:08:30;;;;;;;12.38;8.38;;;;;;;3.29;85.84;100760.56;344877;28;1247;-70
2023/01/04 00:08:42;;;;;;;12.75;8.32;;;;;;;3.31;85.72;100761.47;344723;28;1164;-71
2023/01/04 00:08:54;;;;;;;12.63;8.50;;;;;;;3.33;85.70;100762.34;344691;28;1292;-71
2023/01/04 00:09:06;;;;;;;12.85;8.40;;;;;;;3.33;85.69;100752.91;344843;28;1016;-70
2023/01/04 00:09:18;;;;;;;12.77;8.15;;;;;;;3.37;85.47;100761.53;344039;28;1301;-70
2023/01/04 00:09:30;;;;;;;13.82;8.40;;;;;;;3.40;85.56;100759.00;344702;28;1374;-71
2023/01/04 00:09:42;;;;;;;12.85;8.32;;;;;;;3.42;85.33;100752.22;343329;28;1066;-71
2023/01/04 00:09:55;;;;;;;13.25;8.35;;;;;;;3.42;84.93;100759.91;343240;28;1023;-71
2023/01/04 00:10:07;;;;;;;14.63;8.45;;;;;;;3.44;85.24;100763.38;343783;28;1047;-69
2023/01/04 00:10:19;;;;;;;14.60;8.32;;;;;;;3.42;85.24;100752.22;343784;28;1301;-70
2023/01/04 00:10:31;;;;;;;13.98;8.13;;;;;;;3.45;85.21;100754.81;344872;28;1218;-69
2023/01/04 00:10:44;;;;;;;13.07;8.18;;;;;;;3.45;85.52;100754.81;344937;28;1065;-70
2023/01/04 00:11:04;;;;;;;12.60;8.18;;;;;;;3.37;85.38;100751.25;344187;28;1407;-69
2023/01/04 00:11:18;;;;;;;11.43;8.43;;;;;;;3.32;85.79;100752.88;343543;28;1347;-69
2023/01/04 00:11:30;;;;;;;11.43;8.32;;;;;;;3.27;85.71;100754.53;345249;28;1293;-70
2023/01/04 00:11:42;;;;;;;11.35;8.15;;;;;;;3.24;85.50;100754.47;344910;28;1331;-70
2023/01/04 00:11:53;;;;;;;11.68;8.40;;;;;;;3.27;85.76;100749.41;344619;28;1050;-70
2023/01/04 00:12:05;;;;;;;12.43;8.27;;;;;;;3.27;85.97;100744.25;344440;28;1084;-70
2023/01/04 00:12:17;;;;;;;13.35;8.27;;;;;;;3.25;85.92;100753.66;345000;28;1257;-71
2023/01/04 00:12:29;;;;;;;13.95;8.55;;;;;;;3.25;85.87;100746.81;344634;28;1251;-70
2023/01/04 00:12:41;;;;;;;13.63;8.63;;;;;;;3.29;86.53;100745.16;344641;28;1167;-70
2023/01/04 00:12:53;;;;;;;13.20;8.73;;;;;;;3.18;86.41;100750.16;344805;28;1287;-70
2023/01/04 00:13:05;;;;;;;14.40;10.15;;;;;;;3.17;86.27;100753.53;344248;28;1861;-70
2023/01/04 00:13:17;;;;;;;14.88;11.13;;;;;;;3.20;86.59;100748.47;343972;28;1906;-70
2023/01/04 00:13:30;;;;;;;15.57;11.20;;;;;;;3.22;86.33;100745.88;344002;28;1986;-70
2023/01/04 00:13:42;;;;;;;25.10;19.98;;;;;;;3.26;86.47;100745.97;344148;28;1695;-70
2023/01/04 00:13:57;;;;;;;33.15;26.52;;;;;;;3.24;86.60;100746.78;343659;28;1905;-70
2023/01/04 00:14:10;;;;;;;31.27;25.73;;;;;;;3.27;86.35;100744.25;343890;28;1414;-72
2023/01/04 00:14:22;;;;;;;36.47;30.25;;;;;;;3.32;86.43;100742.59;344596;28;1356;-69
2023/01/04 00:14:34;;;;;;;45.15;37.95;;;;;;;3.33;86.41;100749.50;343995;28;1985;-70
2023/01/04 00:14:45;;;;;;;44.72;37.33;;;;;;;3.34;86.62;100738.34;344567;28;1201;-73
2023/01/04 00:14:57;;;;;;;36.38;29.35;;;;;;;3.37;86.22;100746.13;344541;28;1051;-69
2023/01/04 00:15:09;;;;;;;31.33;24.23;;;;;;;3.42;86.06;100748.75;343925;28;1062;-70
2023/01/04 00:15:21;;;;;;;28.38;21.75;;;;;;;3.44;86.24;100747.97;344676;28;1314;-70
2023/01/04 00:15:34;;;;;;;23.33;18.27;;;;;;;3.45;85.88;100744.53;344722;28;1074;-69
2023/01/04 00:15:46;;;;;;;21.50;17.10;;;;;;;3.47;85.75;100747.97;345150;28;1237;-69
2023/01/04 00:16:06;;;;;;;18.45;14.25;;;;;;;3.51;85.54;100748.91;344069;28;1807;-73
2023/01/04 00:16:21;;;;;;;14.18;10.15;;;;;;;3.47;85.47;100747.13;343715;28;1268;-70
2023/01/04 00:16:33;;;;;;;14.32;9.30;;;;;;;3.46;85.26;100750.53;345024;28;1384;-71
2023/01/04 00:16:45;;;;;;;13.88;8.85;;;;;;;3.47;85.22;100745.41;344716;28;1171;-69
2023/01/04 00:16:57;;;;;;;12.50;8.32;;;;;;;3.47;85.32;100747.13;344774;28;1104;-70
2023/01/04 00:17:09;;;;;;;13.88;8.23;;;;;;;3.45;85.34;100747.09;344977;28;1329;-70
2023/01/04 00:17:21;;;;;;;16.35;10.48;;;;;;;3.42;85.23;100744.50;344564;28;1324;-70
2023/01/04 00:17:33;;;;;;;20.35;14.93;;;;;;;3.43;85.35;100743.63;344346;28;1904;-70
2023/01/04 00:17:45;;;;;;;21.15;16.42;;;;;;;3.41;84.86;100745.31;345096;28;1238;-70
2023/01/04 00:17:57;;;;;;;17.20;13.60;;;;;;;3.39;84.70;100744.44;346180;28;1370;-70
2023/01/04 00:18:09;;;;;;;12.52;9.48;;;;;;;3.40;85.15;100746.16;344264;28;1938;-70
2023/01/04 00:18:22;;;;;;;11.90;8.90;;;;;;;3.40;85.24;100746.16;344343;28;1755;-70
2023/01/04 00:18:35;;;;;;;11.52;8.60;;;;;;;3.42;85.02;100744.50;344448;28;2001;-71
2023/01/04 00:18:48;;;;;;;12.15;8.65;;;;;;;3.44;85.16;100742.81;343612;28;1174;-71
2023/01/04 00:19:00;;;;;;;13.73;10.05;;;;;;;3.42;84.91;100739.34;343273;28;1067;-70
2023/01/04 00:19:12;;;;;;;15.73;11.65;;;;;;;3.32;84.61;100743.50;343677;28;1027;-69
2023/01/04 00:19:24;;;;;;;16.23;12.13;;;;;;;3.36;85.01;100744.38;344336;28;1137;-69
2023/01/04 00:19:36;;;;;;;14.80;10.23;;;;;;;3.30;84.60;100746.88;344381;28;1310;-69
2023/01/04 00:19:48;;;;;;;13.65;9.13;;;;;;;3.35;84.64;100748.66;344699;28;1285;-70
2023/01/04 00:20:00;;;;;;;14.20;8.88;;;;;;;3.34;84.27;100743.50;341893;28;5012;-71
2023/01/04 00:20:11;;;;;;;13.30;8.35;;;;;;;3.32;84.40;100748.63;343252;28;2997;-70
2023/01/04 00:20:23;;;;;;;11.68;8.00;;;;;;;3.31;84.18;100748.59;344593;28;2015;-70
2023/01/04 00:20:35;;;;;;;12.82;9.40;;;;;;;3.26;84.34;100752.81;343275;28;2536;-69
2023/01/04 00:20:47;;;;;;;14.95;10.88;;;;;;;3.14;84.90;100738.94;343137;28;1661;-70
2023/01/04 00:21:10;;;;;;;16.40;11.68;;;;;;;3.16;84.71;100747.53;343446;28;1756;-69
2023/01/04 00:21:27;;;;;;;14.88;12.05;;;;;;;3.12;84.64;100745.78;343517;28;1841;-70
2023/01/04 00:21:39;;;;;;;10.68;8.68;;;;;;;3.11;84.86;100743.16;343276;28;1812;-70
2023/01/04 00:21:52;;;;;;;11.13;8.35;;;;;;;2.99;84.79;100741.28;342889;28;2017;-70
2023/01/04 00:22:04;;;;;;;12.07;9.00;;;;;;;2.86;85.01;100741.91;344669;28;4743;-70
2023/01/04 00:22:16;;;;;;;12.52;9.32;;;;;;;2.76;85.79;100752.03;344588;28;1879;-70
2023/01/04 00:22:27;;;;;;;11.70;8.77;;;;;;;2.77;85.75;100743.47;345088;28;1400;-70
2023/01/04 00:22:39;;;;;;;12.43;8.95;;;;;;;2.82;85.98;100750.41;343778;28;1156;-70
2023/01/04 00:22:51;;;;;;;12.38;8.90;;;;;;;2.88;85.77;100747.94;343697;28;1718;-70
2023/01/04 00:23:03;;;;;;;11.23;8.48;;;;;;;2.92;86.05;100742.03;344664;28;1762;-69
2023/01/04 00:23:15;;;;;;;11.05;7.68;;;;;;;2.94;85.64;100750.63;344390;28;1661;-70
2023/01/04 00:23:27;;;;;;;11.52;7.95;;;;;;;2.98;85.74;100747.25;344739;28;1891;-70
2023/01/04 00:23:41;;;;;;;10.77;7.65;;;;;;;3.01;85.70;100742.16;343913;28;1928;-70
2023/01/04 00:23:55;;;;;;;8.85;6.78;;;;;;;3.05;85.48;100746.50;343963;28;2063;-70
2023/01/04 00:24:08;;;;;;;8.82;6.68;;;;;;;3.07;85.27;100744.81;344734;28;1892;-69
2023/01/04 00:24:20;;;;;;;9.18;6.55;;;;;;;3.10;85.59;100744.88;343683;28;1995;-69
2023/01/04 00:24:32;;;;;;;9.88;6.68;;;;;;;3.12;85.36;100745.78;344375;28;1955;-73
2023/01/04 00:24:44;;;;;;;10.85;6.68;;;;;;;3.07;84.96;100746.53;343424;28;1948;-72
2023/01/04 00:24:57;;;;;;;12.25;7.20;;;;;;;3.01;85.09;100744.72;342531;28;1995;-70
2023/01/04 00:25:09;;;;;;;11.88;7.43;;;;;;;2.97;84.95;100741.25;342060;28;1262;-70
2023/01/04 00:25:21;;;;;;;11.52;7.55;;;;;;;3.01;85.29;100739.59;341366;28;1285;-71
2023/01/04 00:25:33;;;;;;;10.73;7.25;;;;;;;3.02;85.17;100743.91;342460;28;1032;-70
2023/01/04 00:25:45;;;;;;;10.75;6.80;;;;;;;3.05;85.01;100743.94;342273;28;1030;-69
2023/01/04 00:25:57;;;;;;;9.85;6.65;;;;;;;3.09;85.09;100739.72;341745;28;1262;-71
2023/01/04 00:26:12;;;;;;;11.82;6.80;;;;;;;3.12;84.96;100738.06;340789;29;1134;-70
2023/01/04 00:26:30;;;;;;;12.18;7.05;;;;;;;3.15;84.58;100742.38;341735;28;1257;-69
2023/01/04 00:26:42;;;;;;;10.23;6.90;;;;;;;3.16;84.88;100747.53;342453;28;1308;-69
2023/01/04 00:26:54;;;;;;;10.57;6.85;;;;;;;3.17;84.89;100741.56;343600;28;1262;-69
2023/01/04 00:27:06;;;;;;;9.98;6.82;;;;;;;3.20;84.76;100739.03;343245;28;1170;-69
2023/01/04 00:27:18;;;;;;;9.50;6.82;;;;;;;3.22;84.45;100741.63;343442;28;1319;-69
2023/01/04 00:27:30;;;;;;;10.02;6.88;;;;;;;3.23;84.41;100742.50;346390;28;1051;-70
2023/01/04 00:27:41;;;;;;;10.43;7.45;;;;;;;3.24;84.33;100739.06;346179;28;1062;-70
2023/01/04 00:27:53;;;;;;;13.25;9.50;;;;;;;3.18;84.26;100738.16;345918;28;1279;-70
2023/01/04 00:28:06;;;;;;;13.60;10.30;;;;;;;3.19;84.22;100739.88;345907;28;1047;-70
2023/01/04 00:28:18;;;;;;;12.85;9.80;;;;;;;3.22;84.36;100735.63;345351;28;1170;-70
2023/01/04 00:28:30;;;;;;;12.15;8.32;;;;;;;3.21;84.14;100739.91;344002;28;1642;-70
2023/01/04 00:28:42;;;;;;;10.60;6.82;;;;;;;3.22;84.09;100735.63;344758;28;1266;-70
2023/01/04 00:29:05;;;;;;;10.68;7.63;;;;;;;3.21;84.15;100739.91;344759;28;1157;-71
2023/01/04 00:29:17;;;;;;;11.60;8.52;;;;;;;3.19;84.21;100737.28;344711;28;1313;-69
2023/01/04 00:29:29;;;;;;;11.82;8.60;;;;;;;3.14;84.20;100733.81;344164;28;1918;-69
2023/01/04 00:29:41;;;;;;;13.15;9.55;;;;;;;3.13;84.27;100733.78;344465;28;2000;-70
2023/01/04 00:29:53;;;;;;;12.50;10.00;;;;;;;3.14;84.39;100738.94;344788;28;1255;-70
2023/01/04 00:30:06;;;;;;;12.98;10.30;;;;;;;3.16;84.21;100741.56;344640;28;2068;-70
2023/01/04 00:30:18;;;;;;;11.93;9.68;;;;;;;3.12;84.40;100732.94;344935;28;1324;-70
2023/01/04 00:30:30;;;;;;;11.55;8.63;;;;;;;3.03;84.09;100735.34;344025;28;778;-70
2023/01/04 00:30:42;;;;;;;11.45;7.65;;;;;;;3.02;84.59;100738.75;343728;28;1091;-69
2023/01/04 00:31:00;;;;;;;10.88;7.35;;;;;;;2.95;84.56;100737.78;343464;28;1103;-69
2023/01/04 00:31:14;;;;;;;9.52;6.75;;;;;;;2.91;84.78;100736.00;343620;28;1101;-70
2023/01/04 00:31:27;;;;;;;10.25;6.80;;;;;;;2.97;84.94;100736.09;344073;28;1508;-69
2023/01/04 00:31:39;;;;;;;10.77;6.72;;;;;;;3.00;84.69;100735.31;342083;28;1405;-70
2023/01/04 00:31:51;;;;;;;10.65;6.60;;;;;;;2.90;84.87;100733.44;342113;28;1143;-70
2023/01/04 00:32:03;;;;;;;11.43;6.70;;;;;;;2.85;84.98;100735.06;343337;28;1578;-71
2023/01/04 00:32:15;;;;;;;11.60;7.00;;;;;;;2.77;85.03;100738.34;343262;28;1678;-72
2023/01/04 00:32:27;;;;;;;11.25;7.18;;;;;;;2.77;85.58;100735.78;342137;28;1104;-72
2023/01/04 00:32:42;;;;;;;10.40;7.13;;;;;;;2.77;85.80;100740.91;343251;28;1008;-71
2023/01/04 00:32:56;;;;;;;10.20;6.85;;;;;;;2.82;85.32;100741.00;343358;28;1027;-69
2023/01/04 00:33:08;;;;;;;10.05;6.95;;;;;;;2.77;85.46;100738.34;343843;28;1219;-69
2023/01/04 00:33:20;;;;;;;13.38;10.98;;;;;;;2.81;85.75;100734.13;343984;28;1301;-69
2023/01/04 00:33:32;;;;;;;16.75;13.00;;;;;;;2.85;85.63;100735.06;345207;28;1042;-69
2023/01/04 00:33:44;;;;;;;14.98;11.68;;;;;;;2.79;85.80;100741.81;344887;28;1319;-69
2023/01/04 00:33:59;;;;;;;13.07;9.07;;;;;;;2.75;85.65;100734.88;345207;28;1041;-70
2023/01/04 00:34:13;;;;;;;12.05;8.63;;;;;;;2.74;85.55;100740.88;345053;28;1078;-71
2023/01/04 00:34:25;;;;;;;11.30;8.63;;;;;;;2.66;85.62;100734.75;344780;28;1366;-70
2023/01/04 00:34:38;;;;;;;11.48;8.75;;;;;;;2.75;85.63;100734.88;343486;28;1423;-70
2023/01/04 00:34:50;;;;;;;10.13;7.43;;;;;;;2.77;85.30;100740.06;343289;28;1262;-69
2023/01/04 00:35:02;;;;;;;10.02;7.30;;;;;;;2.80;85.28;100735.84;343453;28;1103;-69
2023/01/04 00:35:14;;;;;;;8.98;6.72;;;;;;;2.82;85.40;100735.00;343188;28;1202;-70
2023/01/04 00:35:46;;;;;;;8.40;6.20;;;;;;;2.92;84.84;100739.47;342258;28;1583;-69
2023/01/04 00:36:16;;;;;;;8.45;6.22;;;;;;;2.99;84.22;100734.41;343243;28;1100;-70
2023/01/04 00:36:28;;;;;;;8.70;6.20;;;;;;;2.98;84.34;100730.13;343308;28;1267;-70
2023/01/04 00:36:41;;;;;;;8.90;6.10;;;;;;;3.00;84.13;100728.47;343641;28;1070;-70
2023/01/04 00:36:53;;;;;;;8.32;6.00;;;;;;;2.97;84.12;100735.25;343581;28;1016;-70
2023/01/04 00:37:05;;;;;;;8.02;6.00;;;;;;;2.91;83.99;100735.16;343709;28;1199;-70
2023/01/04 00:37:17;;;;;;;9.18;6.28;;;;;;;2.83;84.24;100736.72;343393;28;1280;-71
2023/01/04 00:37:30;;;;;;;10.00;6.35;;;;;;;2.65;84.83;100732.16;344576;28;1589;-71
2023/01/04 00:37:42;;;;;;;10.43;6.50;;;;;;;2.59;85.29;100728.63;344087;28;1888;-70
2023/01/04 00:38:02;;;;;;;11.73;8.45;;;;;;;2.54;85.80;100731.97;344866;28;2769;-70
2023/01/04 00:38:14;;;;;;;12.38;8.88;;;;;;;2.49;85.99;100731.88;344737;28;4729;-70
2023/01/04 00:38:26;;;;;;;11.93;8.75;;;;;;;2.52;86.60;100731.09;346144;28;1119;-70
2023/01/04 00:38:39;;;;;;;11.30;8.63;;;;;;;2.56;86.74;100733.72;344044;28;2034;-70
2023/01/04 00:39:33;;;;;;;10.35;6.63;;;;;;;2.67;86.33;100725.34;339973;29;1873;-71
2023/01/04 00:39:45;;;;;;;11.30;7.05;;;;;;;2.55;86.54;100736.25;340809;29;1245;-69
2023/01/04 00:39:56;;;;;;;10.98;7.55;;;;;;;2.46;86.72;100721.56;341326;28;1221;-70
2023/01/04 00:40:09;;;;;;;9.85;7.90;;;;;;;2.39;87.35;100738.56;343628;28;1031;-70
2023/01/04 00:40:21;;;;;;;11.73;8.80;;;;;;;2.42;87.78;100736.91;344034;28;1280;-70
2023/01/04 00:40:33;;;;;;;12.95;9.27;;;;;;;2.42;87.56;100730.06;344669;28;992;-69
2023/01/04 00:40:45;;;;;;;13.35;9.52;;;;;;;2.42;87.71;100740.31;343445;28;1025;-69
2023/01/04 00:40:57;;;;;;;13.25;9.55;;;;;;;2.42;88.21;100739.47;343562;28;1154;-69
2023/01/04 00:41:10;;;;;;;13.90;10.57;;;;;;;2.39;88.52;100736.00;343528;28;1053;-69
2023/01/04 00:41:50;;;;;;;12.38;8.98;;;;;;;2.56;87.80;100727.75;341921;28;1521;-71
2023/01/04 00:42:11;;;;;;;8.43;6.25;;;;;;;2.70;87.65;100738.25;341764;28;2008;-70
2023/01/04 00:42:23;;;;;;;8.90;6.38;;;;;;;2.70;87.19;100731.41;342980;28;1182;-70
2023/01/04 00:42:35;;;;;;;10.10;6.53;;;;;;;2.62;87.21;100732.97;343293;28;1027;-69
2023/01/04 00:42:47;;;;;;;10.32;6.60;;;;;;;2.55;87.18;100731.13;343974;28;1139;-70
2023/01/04 00:42:59;;;;;;;16.83;13.35;;;;;;;2.55;87.77;100731.13;343674;28;1071;-69
2023/01/04 00:43:14;;;;;;;22.52;17.63;;;;;;;2.57;87.80;100737.16;343508;28;1195;-70
2023/01/04 00:43:26;;;;;;;22.10;17.50;;;;;;;2.53;87.87;100727.66;343869;28;1869;-70
2023/01/04 00:43:39;;;;;;;16.27;12.60;;;;;;;2.55;88.03;100734.53;344512;28;1953;-70
2023/01/04 00:43:51;;;;;;;12.88;10.07;;;;;;;2.60;88.12;100735.50;344788;28;1186;-72
2023/01/04 00:44:04;;;;;;;9.45;7.35;;;;;;;2.68;87.94;100738.22;344013;28;2411;-70
2023/01/04 00:44:20;;;;;;;11.70;8.45;;;;;;;2.64;87.70;100731.28;344020;28;2030;-70
2023/01/04 00:44:33;;;;;;;12.80;9.10;;;;;;;2.69;87.88;100734.78;344678;28;1167;-69
2023/01/04 00:44:45;;;;;;;9.85;7.03;;;;;;;2.68;87.62;100733.06;344443;28;1273;-70
2023/01/04 00:44:57;;;;;;;9.57;6.22;;;;;;;2.65;87.78;100727.88;344687;28;1015;-71
2023/01/04 00:45:09;;;;;;;9.80;6.40;;;;;;;2.58;87.56;100726.06;344978;28;1174;-71
2023/01/04 00:45:21;;;;;;;10.15;6.78;;;;;;;2.60;88.09;100734.66;344960;28;1203;-70
2023/01/04 00:45:33;;;;;;;9.98;6.63;;;;;;;2.53;87.75;100727.66;343556;28;1140;-70
2023/01/04 00:45:45;;;;;;;10.35;7.50;;;;;;;2.51;88.23;100737.03;343438;28;1001;-69
2023/01/04 00:45:57;;;;;;;12.05;8.98;;;;;;;2.46;88.42;100736.97;342925;28;1807;-71
2023/01/04 00:46:10;;;;;;;12.40;10.43;;;;;;;2.48;88.94;100729.31;343250;28;1805;-70
2023/01/04 00:46:22;;;;;;;12.77;10.52;;;;;;;2.54;89.13;100734.53;344464;28;1274;-70
2023/01/04 00:46:35;;;;;;;12.63;10.38;;;;;;;2.49;89.06;100737.00;344978;28;1063;-70
2023/01/04 00:46:48;;;;;;;12.75;10.55;;;;;;;2.45;88.72;100734.38;343234;28;1214;-71
2023/01/04 00:47:01;;;;;;;12.55;9.68;;;;;;;2.47;88.83;100733.56;344864;28;1050;-70
2023/01/04 00:47:13;;;;;;;12.52;9.20;;;;;;;2.54;89.16;100732.84;344757;28;1088;-70
2023/01/04 00:47:25;;;;;;;16.13;13.18;;;;;;;2.59;89.07;100732.91;343439;28;1278;-70
2023/01/04 00:47:37;;;;;;;19.65;16.60;;;;;;;2.64;88.99;100731.28;343277;28;1294;-69
2023/01/04 00:47:49;;;;;;;21.73;19.40;;;;;;;2.68;89.02;100727.94;344139;28;1239;-70
2023/01/04 00:48:01;;;;;;;22.30;19.88;;;;;;;2.72;88.76;100734.84;343568;28;1053;-69
2023/01/04 00:48:13;;;;;;;22.88;20.48;;;;;;;2.77;88.80;100735.78;343570;28;1992;-69
2023/01/04 00:48:25;;;;;;;22.23;19.83;;;;;;;2.78;88.85;100729.81;343497;28;1399;-69
2023/01/04 00:48:37;;;;;;;21.90;19.00;;;;;;;2.82;88.66;100729.84;342807;28;1100;-70
2023/01/04 00:48:51;;;;;;;21.85;18.42;;;;;;;2.85;88.47;100729.91;342005;28;1356;-70
2023/01/04 00:49:11;;;;;;;20.73;17.23;;;;;;;2.77;88.39;100722.94;341586;28;2070;-69
2023/01/04 00:49:23;;;;;;;26.20;22.05;;;;;;;2.81;88.34;100734.13;342846;28;1874;-69
2023/01/04 00:49:35;;;;;;;30.30;26.88;;;;;;;2.87;88.33;100728.25;341838;28;1927;-70
2023/01/04 00:49:47;;;;;;;24.52;21.85;;;;;;;2.89;88.15;100721.41;343180;28;1591;-69
2023/01/04 00:49:59;;;;;;;19.83;16.98;;;;;;;2.94;88.18;100724.94;342762;28;2170;-69
2023/01/04 00:50:14;;;;;;;20.60;17.80;;;;;;;2.86;87.86;100729.06;341874;28;1297;-70
2023/01/04 00:50:26;;;;;;;22.77;20.20;;;;;;;2.85;87.81;100724.78;343500;28;1259;-70
2023/01/04 00:50:38;;;;;;;24.88;20.73;;;;;;;2.83;87.73;100726.47;343444;28;1194;-70
2023/01/04 00:50:53;;;;;;;24.55;20.50;;;;;;;2.79;87.76;100726.41;343311;28;1036;-70
2023/01/04 00:51:05;;;;;;;21.05;18.20;;;;;;;2.84;87.87;100723.03;342417;28;1216;-70
2023/01/04 00:51:17;;;;;;;21.98;18.70;;;;;;;2.84;87.38;100723.94;342899;28;2020;-70
2023/01/04 00:51:29;;;;;;;20.70;17.67;;;;;;;2.83;87.34;100726.47;342707;28;1940;-70
2023/01/04 00:51:42;;;;;;;18.52;16.33;;;;;;;2.80;87.24;100727.28;342133;28;2018;-70
2023/01/04 00:51:54;;;;;;;16.38;14.38;;;;;;;2.80;87.21;100723.00;342494;28;2012;-70
2023/01/04 00:52:07;;;;;;;16.20;13.82;;;;;;;2.79;87.19;100723.81;342568;28;1828;-70
2023/01/04 00:52:19;;;;;;;21.17;18.42;;;;;;;2.87;87.17;100723.09;344086;28;1962;-70
2023/01/04 00:52:31;;;;;;;23.67;20.67;;;;;;;2.85;86.96;100725.63;345036;28;1099;-70
2023/01/04 00:52:43;;;;;;;20.93;17.80;;;;;;;2.80;86.94;100724.72;343355;28;1054;-71
2023/01/04 00:52:55;;;;;;;16.48;13.27;;;;;;;2.80;86.70;100725.56;343395;28;1313;-70
2023/01/04 00:53:07;;;;;;;14.95;11.95;;;;;;;2.78;86.78;100726.41;343113;28;1051;-70
2023/01/04 00:53:21;;;;;;;15.00;12.48;;;;;;;2.73;86.61;100728.88;344502;28;1530;-69
2023/01/04 00:53:33;;;;;;;16.25;13.93;;;;;;;2.78;86.74;100724.69;344702;28;978;-71
2023/01/04 00:53:45;;;;;;;17.65;15.75;;;;;;;2.83;86.99;100726.47;344803;28;1055;-72
2023/01/04 00:54:00;;;;;;;19.55;17.48;;;;;;;2.89;86.62;100722.28;344802;28;1093;-71
2023/01/04 00:54:13;;;;;;;20.05;17.83;;;;;;;2.95;86.66;100726.66;344877;28;1211;-69
2023/01/04 00:54:26;;;;;;;19.60;17.33;;;;;;;2.98;86.56;100722.44;344658;28;1334;-70
2023/01/04 00:54:37;;;;;;;17.65;15.10;;;;;;;3.03;86.27;100726.78;344767;28;1287;-69
2023/01/04 00:54:50;;;;;;;15.45;13.68;;;;;;;3.04;86.37;100725.91;345260;28;1399;-69
2023/01/04 00:55:02;;;;;;;14.93;13.13;;;;;;;3.06;86.05;100720.00;343856;28;1324;-69
2023/01/04 00:55:14;;;;;;;14.00;11.43;;;;;;;3.06;85.88;100725.13;344845;28;1058;-70
2023/01/04 00:55:26;;;;;;;12.38;9.95;;;;;;;3.10;85.51;100721.75;344844;28;1149;-69
2023/01/04 00:55:41;;;;;;;11.05;8.77;;;;;;;3.10;85.52;100726.91;344616;28;1635;-70
2023/01/04 00:55:58;;;;;;;10.30;7.97;;;;;;;3.14;85.33;100723.53;344762;28;1182;-70
2023/01/04 00:56:10;;;;;;;9.90;7.78;;;;;;;3.16;85.14;100721.84;344610;28;1870;-70
2023/01/04 00:56:23;;;;;;;10.05;7.95;;;;;;;3.13;85.02;100726.06;344610;28;1523;-70
2023/01/04 00:56:34;;;;;;;10.02;8.30;;;;;;;3.14;84.87;100722.66;343711;28;1337;-70
2023/01/04 00:56:47;;;;;;;9.68;8.05;;;;;;;3.12;84.85;100724.34;343907;28;1182;-70
2023/01/04 00:57:00;;;;;;;9.48;7.32;;;;;;;3.12;84.78;100725.22;344468;28;1727;-70
2023/01/04 00:57:12;;;;;;;8.75;6.88;;;;;;;3.10;84.58;100726.91;343562;28;1950;-70
2023/01/04 00:57:24;;;;;;;8.32;6.70;;;;;;;3.15;84.42;100726.97;344552;28;1944;-71
2023/01/04 00:57:36;;;;;;;9.57;7.00;;;;;;;3.17;84.68;100722.72;341910;28;1922;-70
2023/01/04 00:57:47;;;;;;;10.02;7.15;;;;;;;3.20;84.75;100727.91;342464;28;1827;-71
2023/01/04 00:58:00;;;;;;;10.40;7.65;;;;;;;3.24;84.23;100734.81;344021;28;1162;-70
2023/01/04 00:58:12;;;;;;;10.43;7.82;;;;;;;3.22;84.53;100731.38;343556;28;1985;-70
2023/01/04 00:58:24;;;;;;;9.37;7.20;;;;;;;3.26;84.51;100734.81;342308;28;1918;-70
2023/01/04 00:58:36;;;;;;;9.00;6.63;;;;;;;3.28;84.32;100731.44;344865;28;1273;-70
2023/01/04 00:58:48;;;;;;;8.90;6.18;;;;;;;3.30;84.35;100734.00;344970;28;1185;-71
2023/01/04 00:59:02;;;;;;;8.52;5.70;;;;;;;3.32;83.98;100735.78;343412;28;1747;-71
2023/01/04 00:59:16;;;;;;;7.47;4.95;;;;;;;3.34;83.76;100735.78;343758;28;1056;-70
2023/01/04 00:59:28;;;;;;;7.85;4.90;;;;;;;3.34;83.53;100730.66;342042;28;1715;-70
2023/01/04 00:59:40;;;;;;;7.90;4.88;;;;;;;3.34;83.52;100738.34;342299;28;1217;-70
2023/01/04 00:59:52;;;;;;;6.97;4.72;;;;;;;3.33;83.11;100737.50;342381;28;1354;-70
2023/01/04 01:00:05;;;;;;;6.30;4.70;;;;;;;3.33;83.10;100729.78;343521;28;1102;-70
2023/01/04 01:00:17;;;;;;;5.90;4.57;;;;;;;3.33;82.55;100731.50;344215;28;1325;-70
2023/01/04 01:00:29;;;;;;;6.15;4.50;;;;;;;3.28;82.86;100735.69;344920;28;1921;-69
2023/01/04 01:00:42;;;;;;;6.55;4.70;;;;;;;3.27;82.85;100736.56;344702;28;1260;-70
2023/01/04 01:00:53;;;;;;;6.40;4.72;;;;;;;3.26;82.87;100733.13;344968;28;1198;-70
2023/01/04 01:01:07;;;;;;;6.18;4.75;;;;;;;3.26;83.01;100739.94;344949;28;1072;-70
2023/01/04 01:01:19;;;;;;;5.68;4.50;;;;;;;3.24;83.02;100731.34;345235;28;1285;-70
2023/01/04 01:01:32;;;;;;;6.90;4.57;;;;;;;3.16;82.79;100732.13;346490;28;1239;-70
2023/01/04 01:01:45;;;;;;;7.57;4.85;;;;;;;3.18;82.64;100733.00;344747;28;1759;-70
2023/01/04 01:01:57;;;;;;;8.02;5.07;;;;;;;3.12;82.43;100738.06;343704;28;1007;-70
2023/01/04 01:02:10;;;;;;;7.60;4.82;;;;;;;3.10;82.87;100734.59;344390;28;1038;-70
2023/01/04 01:02:24;;;;;;;7.80;5.38;;;;;;;3.06;82.90;100735.41;345247;28;1265;-70
2023/01/04 01:02:37;;;;;;;8.30;5.93;;;;;;;3.05;83.17;100733.66;345111;28;1035;-70
2023/01/04 01:02:49;;;;;;;7.10;5.53;;;;;;;3.04;83.00;100731.06;344756;28;1773;-70
2023/01/04 01:03:02;;;;;;;7.78;5.38;;;;;;;3.06;83.32;100732.84;345088;28;1339;-70
2023/01/04 01:03:14;;;;;;;8.23;5.30;;;;;;;3.06;83.40;100734.50;345303;28;1166;-70
2023/01/04 01:03:26;;;;;;;7.72;5.40;;;;;;;3.01;83.56;100737.03;344955;28;1651;-70
2023/01/04 01:03:44;;;;;;;7.93;6.00;;;;;;;2.99;83.75;100733.56;345418;28;1050;-70